Time;durP1;ratioP1;P1;durP2;ratioP2;P2;SDS_P1;SDS_P2;PMS_P1;PMS_P2;Temp;Humidity;BMP_temperature;BMP_pressure;BME280_temperature;BME280_humidity;BME280_pressure;Samples;Min_cycle;Max_cycle;Signal;HPM_P1;HPM_P2
2021/06/29 00:00:38;;;;;;;6.93;1.73;;;14.50;74.40;;;;;;5079547;28;20383;-78
2021/06/29 00:03:05;;;;;;;6.22;2.03;;;14.40;74.30;;;;;;5080080;28;20029;-78
2021/06/29 00:05:33;;;;;;;3.72;1.58;;;14.50;74.30;;;;;;5079821;28;20455;-77
2021/06/29 00:08:02;;;;;;;3.10;1.45;;;14.40;74.20;;;;;;5079045;28;20077;-77
2021/06/29 00:10:29;;;;;;;4.45;1.67;;;14.40;74.20;;;;;;5079852;28;20074;-77
2021/06/29 00:12:55;;;;;;;3.17;1.60;;;14.50;74.30;;;;;;5077477;28;20031;-77
2021/06/29 00:15:23;;;;;;;3.35;1.70;;;14.40;74.30;;;;;;5078842;28;20029;-77
2021/06/29 00:17:49;;;;;;;3.92;1.83;;;14.40;74.20;;;;;;5078552;28;20119;-78
2021/06/29 00:20:16;;;;;;;3.17;1.60;;;14.40;74.20;;;;;;5073818;28;20487;-77
2021/06/29 00:22:42;;;;;;;2.53;1.40;;;14.40;74.00;;;;;;5078936;28;20040;-78
2021/06/29 00:25:10;;;;;;;3.85;2.08;;;14.40;73.90;;;;;;5079496;28;20025;-77
2021/06/29 00:27:36;;;;;;;3.75;1.60;;;14.40;73.80;;;;;;5079093;28;20402;-77
2021/06/29 00:30:02;;;;;;;4.72;1.63;;;14.30;73.70;;;;;;5079533;28;20021;-77
2021/06/29 00:32:28;;;;;;;3.72;1.90;;;14.30;73.50;;;;;;5073227;28;20441;-78
2021/06/29 00:34:53;;;;;;;3.72;1.65;;;14.30;73.50;;;;;;5079528;28;20023;-78
2021/06/29 00:37:19;;;;;;;5.10;1.80;;;14.30;73.60;;;;;;5079046;28;20058;-78
2021/06/29 00:39:45;;;;;;;3.22;1.73;;;14.30;73.40;;;;;;5078552;28;20095;-78
2021/06/29 00:42:11;;;;;;;3.88;1.80;;;14.20;73.40;;;;;;5078950;28;20028;-77
2021/06/29 00:44:37;;;;;;;4.82;1.67;;;14.20;73.40;;;;;;5076817;28;20395;-77
2021/06/29 00:47:02;;;;;;;3.85;1.50;;;14.20;73.30;;;;;;5078816;28;20489;-78
2021/06/29 00:49:28;;;;;;;3.83;1.70;;;14.10;73.20;;;;;;5078172;28;20033;-77
2021/06/29 00:51:54;;;;;;;3.70;1.60;;;14.10;73.20;;;;;;5077858;28;20025;-77
2021/06/29 00:54:20;;;;;;;3.72;1.52;;;14.10;73.20;;;;;;5079026;28;20024;-77
2021/06/29 00:56:46;;;;;;;4.60;1.80;;;14.00;73.00;;;;;;5077818;28;20581;-78
2021/06/29 00:59:12;;;;;;;5.10;1.45;;;14.00;73.10;;;;;;5078348;28;20029;-78
2021/06/29 01:01:38;;;;;;;2.70;1.40;;;14.00;73.30;;;;;;5078818;28;20566;-78
2021/06/29 01:04:06;;;;;;;5.93;2.03;;;14.10;74.80;;;;;;5078710;28;20024;-78
2021/06/29 01:06:32;;;;;;;4.97;1.95;;;14.00;75.60;;;;;;5078328;28;20025;-78
2021/06/29 01:09:00;;;;;;;9.30;2.63;;;14.00;76.40;;;;;;5078146;28;20025;-78
2021/06/29 01:11:26;;;;;;;5.70;2.08;;;14.00;75.80;;;;;;5077960;28;20024;-78
2021/06/29 01:13:51;;;;;;;3.63;2.28;;;14.10;76.70;;;;;;5078273;28;20025;-78
2021/06/29 01:16:17;;;;;;;3.97;1.90;;;14.10;76.70;;;;;;5077127;28;20415;-78
2021/06/29 01:18:45;;;;;;;4.40;1.92;;;14.10;77.60;;;;;;5072353;28;20028;-79
2021/06/29 01:21:17;;;;;;;4.60;2.13;;;14.10;77.30;;;;;;5069185;28;20054;-78
2021/06/29 01:23:49;;;;;;;5.03;2.13;;;14.10;77.40;;;;;;5077927;28;20025;-78
2021/06/29 01:26:29;;;;;;;3.67;1.88;;;14.10;77.00;;;;;;5076685;28;20037;-78
2021/06/29 01:29:05;;;;;;;4.15;1.80;;;14.20;76.70;;;;;;5075610;28;20066;-78
2021/06/29 01:31:36;;;;;;;3.10;1.60;;;14.20;76.50;;;;;;5077698;28;20086;-78
2021/06/29 01:34:03;;;;;;;3.75;1.88;;;14.20;76.40;;;;;;5078286;28;20103;-77
2021/06/29 01:36:36;;;;;;;3.90;1.77;;;14.20;76.40;;;;;;5064827;28;20029;-78
2021/06/29 01:39:08;;;;;;;5.15;2.13;;;14.20;76.50;;;;;;5077406;28;20059;-78
2021/06/29 01:41:34;;;;;;;5.03;1.80;;;14.30;77.60;;;;;;5078197;28;20028;-78
2021/06/29 01:44:08;;;;;;;3.70;1.90;;;14.30;78.30;;;;;;5077462;28;20035;-78
2021/06/29 01:46:37;;;;;;;3.35;1.65;;;14.30;77.70;;;;;;5072566;28;20024;-78
2021/06/29 01:49:03;;;;;;;4.07;1.90;;;14.30;77.60;;;;;;5075031;28;20033;-78
2021/06/29 01:51:29;;;;;;;4.65;1.80;;;14.30;77.80;;;;;;5077032;28;20040;-78
2021/06/29 01:53:55;;;;;;;6.43;2.08;;;14.30;77.60;;;;;;5074396;28;20025;-78
2021/06/29 01:56:28;;;;;;;7.05;2.20;;;14.40;77.60;;;;;;5077348;28;20047;-78
2021/06/29 01:58:57;;;;;;;6.75;2.08;;;14.30;77.80;;;;;;5077483;28;20052;-78
2021/06/29 02:01:23;;;;;;;5.18;1.90;;;14.30;77.50;;;;;;5076582;28;20063;-79
2021/06/29 02:03:49;;;;;;;4.30;2.33;;;14.30;77.40;;;;;;5075173;28;20017;-79
2021/06/29 02:06:16;;;;;;;6.47;2.20;;;14.30;77.40;;;;;;5077222;28;20383;-79
2021/06/29 02:08:42;;;;;;;4.32;2.63;;;14.30;78.90;;;;;;5076815;28;20032;-78
2021/06/29 02:11:08;;;;;;;3.85;2.00;;;14.30;79.00;;;;;;5076692;28;20032;-79
2021/06/29 02:13:34;;;;;;;7.68;2.30;;;14.40;78.40;;;;;;5077186;28;20024;-79
2021/06/29 02:16:00;;;;;;;5.22;2.40;;;14.30;78.50;;;;;;5075823;28;20109;-79
2021/06/29 02:18:28;;;;;;;5.10;2.50;;;14.30;78.90;;;;;;5076160;28;20056;-79
2021/06/29 02:20:54;;;;;;;3.63;2.20;;;14.30;79.40;;;;;;5076871;28;20036;-79
2021/06/29 02:23:20;;;;;;;4.93;2.45;;;14.30;79.20;;;;;;5077051;28;20017;-79
2021/06/29 02:25:46;;;;;;;9.18;2.78;;;14.30;79.30;;;;;;5077381;28;20107;-78
2021/06/29 02:28:12;;;;;;;7.43;2.92;;;14.30;79.20;;;;;;5076678;28;20024;-78
2021/06/29 02:30:38;;;;;;;5.47;2.50;;;14.30;79.40;;;;;;5077135;28;20028;-79
2021/06/29 02:33:04;;;;;;;5.07;2.78;;;14.40;78.90;;;;;;5077262;28;20029;-78
2021/06/29 02:35:30;;;;;;;5.95;2.85;;;14.30;78.50;;;;;;5077286;28;20502;-78
2021/06/29 02:37:57;;;;;;;8.13;3.50;;;14.30;78.20;;;;;;5076883;28;20021;-78
2021/06/29 02:40:23;;;;;;;7.70;3.63;;;14.30;78.40;;;;;;5076543;28;20052;-78
2021/06/29 02:42:49;;;;;;;5.53;3.28;;;14.30;78.00;;;;;;5077200;28;20017;-79
2021/06/29 02:45:18;;;;;;;5.97;2.92;;;14.30;77.90;;;;;;5071485;28;20029;-78
2021/06/29 02:47:45;;;;;;;6.53;3.83;;;14.30;78.00;;;;;;5074171;28;20024;-79
2021/06/29 02:50:11;;;;;;;7.72;3.63;;;14.30;77.80;;;;;;5076666;28;20033;-79
2021/06/29 02:52:37;;;;;;;7.50;4.07;;;14.30;77.80;;;;;;5076157;28;20026;-79
2021/06/29 02:55:07;;;;;;;12.43;5.15;;;14.30;77.70;;;;;;5077056;28;20032;-78
2021/06/29 02:57:33;;;;;;;16.23;6.93;;;14.30;77.90;;;;;;5076381;28;20034;-78
2021/06/29 02:59:58;;;;;;;18.65;7.20;;;14.40;77.90;;;;;;5076067;28;20041;-78
2021/06/29 03:02:24;;;;;;;16.60;7.93;;;14.40;78.00;;;;;;5076517;28;20048;-79
2021/06/29 03:04:50;;;;;;;15.00;7.80;;;14.40;78.00;;;;;;5076680;28;20025;-78
2021/06/29 03:07:16;;;;;;;14.75;8.55;;;14.40;78.00;;;;;;5076158;28;20073;-78
2021/06/29 03:09:42;;;;;;;17.30;8.93;;;14.40;78.00;;;;;;5075960;28;20036;-78
2021/06/29 03:12:09;;;;;;;17.08;9.60;;;14.40;78.20;;;;;;5076710;28;20082;-78
2021/06/29 03:14:36;;;;;;;17.13;9.70;;;14.40;79.00;;;;;;5080255;28;20029;-78
2021/06/29 03:17:05;;;;;;;20.92;11.38;;;14.40;79.20;;;;;;5078937;28;20063;-77
2021/06/29 03:19:32;;;;;;;21.42;11.57;;;14.40;80.00;;;;;;5074372;28;20055;-78
2021/06/29 03:21:59;;;;;;;22.75;12.18;;;14.40;80.30;;;;;;5080661;28;20066;-78
2021/06/29 03:24:25;;;;;;;21.17;12.35;;;14.40;80.40;;;;;;5080396;28;20052;-77
2021/06/29 03:26:51;;;;;;;20.85;10.77;;;14.40;80.40;;;;;;5080700;28;20383;-78
2021/06/29 03:29:17;;;;;;;20.13;10.85;;;14.40;79.60;;;;;;5079595;28;20043;-78
2021/06/29 03:31:43;;;;;;;19.05;10.05;;;14.40;79.10;;;;;;5080705;28;20016;-77
2021/06/29 03:34:08;;;;;;;19.02;10.10;;;14.50;78.90;;;;;;5079760;28;20058;-78
2021/06/29 03:36:34;;;;;;;19.33;10.18;;;14.50;78.80;;;;;;5080256;28;20016;-78
2021/06/29 03:39:00;;;;;;;17.65;9.95;;;14.40;78.70;;;;;;5080089;28;20042;-78
2021/06/29 03:41:26;;;;;;;15.65;9.10;;;14.40;78.60;;;;;;5067282;28;20463;-79
2021/06/29 03:43:52;;;;;;;16.40;8.52;;;14.40;78.50;;;;;;5079421;28;20024;-78
2021/06/29 03:46:18;;;;;;;18.35;9.00;;;14.40;78.60;;;;;;5077244;28;20047;-78
2021/06/29 03:48:44;;;;;;;15.98;8.55;;;14.40;78.60;;;;;;5079934;28;20471;-78
2021/06/29 03:51:10;;;;;;;15.88;8.82;;;14.40;78.70;;;;;;5079782;28;20020;-78
2021/06/29 03:53:36;;;;;;;17.75;8.43;;;14.40;79.40;;;;;;5079671;28;20032;-78
2021/06/29 03:56:02;;;;;;;15.20;7.30;;;14.40;79.70;;;;;;5079699;28;20044;-79
2021/06/29 03:58:28;;;;;;;14.60;7.30;;;14.40;79.80;;;;;;5079555;28;20037;-78
2021/06/29 04:00:53;;;;;;;13.25;6.88;;;14.40;80.20;;;;;;5079973;28;20020;-78
2021/06/29 04:03:19;;;;;;;11.32;5.70;;;14.40;80.50;;;;;;5079532;28;20021;-78
2021/06/29 04:05:45;;;;;;;15.15;6.45;;;14.40;79.90;;;;;;5079783;28;20039;-79
2021/06/29 04:08:11;;;;;;;14.20;6.35;;;14.40;79.80;;;;;;5078873;28;20035;-79
2021/06/29 04:10:37;;;;;;;19.23;7.50;;;14.40;80.20;;;;;;5079288;28;20048;-78
2021/06/29 04:13:03;;;;;;;16.40;8.38;;;14.40;80.30;;;;;;5079826;28;20044;-79
2021/06/29 04:15:28;;;;;;;16.48;8.38;;;14.40;80.70;;;;;;5077584;28;20514;-78
2021/06/29 04:17:54;;;;;;;16.83;8.93;;;14.40;80.70;;;;;;5079225;28;20137;-78
2021/06/29 04:20:20;;;;;;;18.00;8.82;;;14.30;81.10;;;;;;5078807;28;20029;-78
2021/06/29 04:22:46;;;;;;;16.73;9.20;;;14.40;81.00;;;;;;5078665;28;20017;-78
2021/06/29 04:25:12;;;;;;;16.45;8.57;;;14.30;81.10;;;;;;5077193;28;20028;-78
2021/06/29 04:27:38;;;;;;;17.50;8.57;;;14.30;80.30;;;;;;5078991;28;20043;-79
2021/06/29 04:30:08;;;;;;;15.23;8.00;;;14.40;80.30;;;;;;5079398;28;20472;-78
2021/06/29 04:32:34;;;;;;;15.55;8.50;;;14.30;79.80;;;;;;5079409;28;20017;-78
2021/06/29 04:35:00;;;;;;;14.52;9.25;;;14.40;80.00;;;;;;5079324;28;20120;-78
2021/06/29 04:37:26;;;;;;;12.13;7.22;;;14.40;79.60;;;;;;5077614;28;20069;-78
2021/06/29 04:39:51;;;;;;;14.88;7.95;;;14.40;79.40;;;;;;5078189;28;20103;-78
2021/06/29 04:42:17;;;;;;;12.20;7.53;;;14.40;79.30;;;;;;5077467;28;20514;-78
2021/06/29 04:44:43;;;;;;;13.50;7.18;;;14.40;79.20;;;;;;5072830;28;20430;-78
2021/06/29 04:47:09;;;;;;;11.73;7.50;;;14.40;79.20;;;;;;5076831;28;20025;-78
2021/06/29 04:49:37;;;;;;;14.10;7.45;;;14.40;79.60;;;;;;5078502;28;20024;-79
2021/06/29 04:52:04;;;;;;;13.95;7.55;;;14.40;79.40;;;;;;5078588;28;20036;-79
2021/06/29 04:54:29;;;;;;;12.38;7.00;;;14.40;79.30;;;;;;5077149;28;20090;-79
2021/06/29 04:56:55;;;;;;;13.25;7.75;;;14.40;79.20;;;;;;5078068;28;20020;-79
2021/06/29 04:59:21;;;;;;;16.02;8.10;;;14.40;79.20;;;;;;5065560;28;20028;-79
2021/06/29 05:01:47;;;;;;;13.02;8.10;;;14.40;79.20;;;;;;5078783;28;20498;-79
2021/06/29 05:04:13;;;;;;;13.23;8.18;;;14.50;79.20;;;;;;5066244;28;20056;-79
2021/06/29 05:06:38;;;;;;;14.05;7.82;;;14.50;79.30;;;;;;5077723;28;20048;-78
2021/06/29 05:09:05;;;;;;;16.70;8.10;;;14.50;79.30;;;;;;5078558;28;20537;-78
2021/06/29 05:11:30;;;;;;;15.00;8.63;;;14.50;79.40;;;;;;5077570;28;20027;-80
2021/06/29 05:13:56;;;;;;;16.00;8.55;;;14.60;79.50;;;;;;5086862;28;20032;-79
2021/06/29 05:16:22;;;;;;;13.38;8.32;;;14.60;79.60;;;;;;5077739;28;20033;-85
2021/06/29 05:18:48;;;;;;;21.75;10.18;;;14.60;79.80;;;;;;5076036;28;20026;-83
2021/06/29 05:21:14;;;;;;;18.42;10.10;;;14.60;80.10;;;;;;5077633;28;20032;-81
2021/06/29 05:23:39;;;;;;;18.42;9.85;;;14.60;80.10;;;;;;5076199;28;20115;-89
2021/06/29 05:26:05;;;;;;;17.55;10.63;;;14.70;80.20;;;;;;5077825;28;20028;-78
2021/06/29 05:28:31;;;;;;;18.52;9.80;;;14.70;80.60;;;;;;5077483;28;20063;-81
2021/06/29 05:30:57;;;;;;;18.05;10.18;;;14.70;80.40;;;;;;5077647;28;20032;-79
2021/06/29 05:33:23;;;;;;;19.52;10.88;;;14.80;80.40;;;;;;5076779;28;20116;-83
2021/06/29 05:35:48;;;;;;;17.00;10.57;;;14.80;80.40;;;;;;5077680;28;20028;-82
2021/06/29 05:38:14;;;;;;;17.23;9.85;;;14.80;80.50;;;;;;5075787;28;20029;-86
2021/06/29 05:40:40;;;;;;;15.73;9.88;;;14.80;80.70;;;;;;5076561;28;20028;-86
2021/06/29 05:43:06;;;;;;;17.90;10.20;;;14.90;80.70;;;;;;5078285;28;20071;-83
2021/06/29 05:45:32;;;;;;;14.23;9.00;;;14.90;80.70;;;;;;5076765;28;20500;-86
2021/06/29 05:47:58;;;;;;;15.77;8.90;;;14.90;80.70;;;;;;5077537;28;20059;-78
2021/06/29 05:50:25;;;;;;;16.45;9.60;;;14.90;80.70;;;;;;5077330;28;20065;-79
2021/06/29 05:52:51;;;;;;;18.83;10.60;;;15.00;81.20;;;;;;5077146;28;20158;-82
2021/06/29 05:55:17;;;;;;;16.08;10.48;;;15.00;81.00;;;;;;5077325;28;20059;-83
2021/06/29 05:57:43;;;;;;;17.27;9.82;;;15.00;80.90;;;;;;5077978;28;20024;-79
2021/06/29 06:00:15;;;;;;;20.38;11.82;;;15.00;80.80;;;;;;5077289;28;20036;-78
2021/06/29 06:02:41;;;;;;;18.35;10.88;;;15.00;80.90;;;;;;5075349;28;20506;-77
2021/06/29 06:05:08;;;;;;;19.85;11.70;;;15.00;80.80;;;;;;5076087;28;20483;-77
2021/06/29 06:07:35;;;;;;;16.92;10.18;;;15.00;80.90;;;;;;5076668;28;20586;-78
2021/06/29 06:10:02;;;;;;;19.23;11.93;;;15.00;80.90;;;;;;5075387;28;20053;-80
2021/06/29 06:12:28;;;;;;;17.13;10.77;;;15.10;81.10;;;;;;5076047;28;20029;-80
2021/06/29 06:14:55;;;;;;;20.10;11.93;;;15.10;81.10;;;;;;5076388;28;20024;-76
2021/06/29 06:17:21;;;;;;;18.50;11.57;;;15.10;81.10;;;;;;5076572;28;20170;-76
2021/06/29 06:19:47;;;;;;;17.05;10.85;;;15.10;81.10;;;;;;5075891;28;20027;-77
2021/06/29 06:22:13;;;;;;;16.08;10.55;;;15.20;81.20;;;;;;5075774;28;20487;-77
2021/06/29 06:24:39;;;;;;;17.55;10.98;;;15.20;81.20;;;;;;5075380;28;20051;-77
2021/06/29 06:27:08;;;;;;;18.15;12.75;;;15.20;81.40;;;;;;5066945;28;20025;-80
2021/06/29 06:29:34;;;;;;;19.00;11.65;;;15.20;81.40;;;;;;5076827;28;20048;-80
2021/06/29 06:32:00;;;;;;;18.05;10.50;;;15.30;81.50;;;;;;5072489;28;20040;-80
2021/06/29 06:34:26;;;;;;;20.25;11.98;;;15.30;81.60;;;;;;5076040;28;20028;-80
2021/06/29 06:36:52;;;;;;;20.40;12.30;;;15.40;81.90;;;;;;5076153;28;20032;-79
2021/06/29 06:39:18;;;;;;;17.48;11.25;;;15.50;82.00;;;;;;5076060;28;20033;-80
2021/06/29 06:41:44;;;;;;;19.75;11.25;;;15.50;82.20;;;;;;5075620;28;20028;-79
2021/06/29 06:44:09;;;;;;;19.50;11.70;;;15.60;82.30;;;;;;5068650;28;20039;-80
2021/06/29 06:46:35;;;;;;;23.25;13.23;;;15.60;82.20;;;;;;5076446;28;20035;-80
2021/06/29 06:49:01;;;;;;;51.13;20.13;;;15.60;82.30;;;;;;5077982;28;20823;-79
2021/06/29 06:51:27;;;;;;;48.75;20.45;;;15.70;82.40;;;;;;5080498;28;20037;-79
2021/06/29 06:53:53;;;;;;;63.80;22.75;;;15.70;82.20;;;;;;5080986;28;20095;-79
2021/06/29 06:56:19;;;;;;;33.78;14.52;;;15.60;82.20;;;;;;5080719;28;20055;-80
2021/06/29 06:58:46;;;;;;;20.50;11.80;;;15.70;82.30;;;;;;5079172;28;20395;-79
2021/06/29 07:01:12;;;;;;;24.35;12.85;;;15.60;82.10;;;;;;5078337;28;20207;-79
2021/06/29 07:03:39;;;;;;;18.48;10.20;;;15.70;82.30;;;;;;5081004;28;20100;-78
2021/06/29 07:06:08;;;;;;;15.18;10.73;;;15.70;82.30;;;;;;5079074;28;20578;-78
2021/06/29 07:08:35;;;;;;;21.00;11.88;;;15.70;82.90;;;;;;5080718;28;20082;-78
2021/06/29 07:11:01;;;;;;;16.80;10.48;;;15.80;82.50;;;;;;5078858;28;20470;-78
2021/06/29 07:13:29;;;;;;;18.73;10.85;;;15.80;82.70;;;;;;5079609;28;20033;-80
2021/06/29 07:15:55;;;;;;;14.23;9.45;;;15.90;82.90;;;;;;5079345;28;20055;-78
2021/06/29 07:18:21;;;;;;;15.65;9.15;;;16.00;83.00;;;;;;5079382;28;20097;-73
2021/06/29 07:20:47;;;;;;;13.32;8.57;;;16.10;83.10;;;;;;5079854;28;20029;-79
2021/06/29 07:23:15;;;;;;;15.57;8.90;;;16.10;83.10;;;;;;5080589;28;20078;-79
2021/06/29 07:25:42;;;;;;;13.40;8.30;;;16.10;83.00;;;;;;5079760;28;20027;-78
2021/06/29 07:28:08;;;;;;;14.57;8.80;;;16.20;83.10;;;;;;5079303;28;20063;-78
2021/06/29 07:30:35;;;;;;;13.68;8.90;;;16.20;83.20;;;;;;5078091;28;20047;-78
2021/06/29 07:33:03;;;;;;;19.05;10.60;;;16.20;83.20;;;;;;5079108;28;20017;-79
2021/06/29 07:35:30;;;;;;;15.60;9.57;;;16.30;83.10;;;;;;5073009;28;20513;-78
2021/06/29 07:37:56;;;;;;;16.35;9.73;;;16.40;83.10;;;;;;5079875;28;20017;-79
2021/06/29 07:40:22;;;;;;;16.65;9.43;;;16.40;83.60;;;;;;5079143;28;20547;-78
2021/06/29 07:42:48;;;;;;;18.67;8.98;;;16.60;84.30;;;;;;5078670;28;20020;-78
2021/06/29 07:45:14;;;;;;;17.42;9.43;;;17.00;84.40;;;;;;5077552;28;20115;-78
2021/06/29 07:47:40;;;;;;;15.40;8.52;;;17.20;84.60;;;;;;5079625;28;20025;-79
2021/06/29 07:50:08;;;;;;;13.32;7.45;;;17.30;83.60;;;;;;5078525;28;20024;-76
2021/06/29 07:52:35;;;;;;;14.93;9.27;;;17.30;81.80;;;;;;5073667;28;20448;-78
2021/06/29 07:55:05;;;;;;;16.38;7.40;;;17.30;82.20;;;;;;5079663;28;20029;-78
2021/06/29 07:57:31;;;;;;;13.07;7.32;;;17.40;82.50;;;;;;5067132;28;20025;-78
2021/06/29 07:59:57;;;;;;;11.57;6.45;;;17.50;83.00;;;;;;5079039;28;20499;-79
2021/06/29 08:02:23;;;;;;;10.35;6.30;;;17.50;81.70;;;;;;5077960;28;20509;-79
2021/06/29 08:04:49;;;;;;;9.70;6.63;;;17.50;80.40;;;;;;5079720;28;20020;-78
2021/06/29 08:07:15;;;;;;;14.93;8.32;;;17.60;80.60;;;;;;5073239;28;20040;-80
2021/06/29 08:09:41;;;;;;;11.55;7.10;;;17.60;81.00;;;;;;5064027;28;20021;-79
2021/06/29 08:12:08;;;;;;;12.27;6.22;;;17.60;81.70;;;;;;5078691;28;20029;-80
2021/06/29 08:14:36;;;;;;;10.15;6.75;;;17.60;81.30;;;;;;5078241;28;20050;-80
2021/06/29 08:17:06;;;;;;;10.75;6.03;;;17.60;81.40;;;;;;5079525;28;20055;-80
2021/06/29 08:19:32;;;;;;;12.20;6.60;;;17.60;81.10;;;;;;5078191;28;20028;-83
2021/06/29 08:21:58;;;;;;;7.72;5.32;;;17.60;81.10;;;;;;5077236;28;20033;-83
2021/06/29 08:24:24;;;;;;;13.02;6.72;;;17.60;81.70;;;;;;5072577;28;20531;-73
2021/06/29 08:26:50;;;;;;;13.43;5.72;;;17.80;82.40;;;;;;5078951;28;20081;-79
2021/06/29 08:29:16;;;;;;;10.98;5.93;;;18.20;82.60;;;;;;5071254;28;20076;-74
2021/06/29 08:31:42;;;;;;;10.00;5.13;;;18.70;83.90;;;;;;5079503;28;20532;-74
2021/06/29 08:34:08;;;;;;;9.07;4.90;;;19.10;81.70;;;;;;5079179;28;20074;-72
2021/06/29 08:36:41;;;;;;;36.63;21.25;;;19.60;81.00;;;;;;5078384;28;20025;-71
2021/06/29 08:39:10;;;;;;;11.82;5.65;;;19.80;81.70;;;;;;5073955;28;20067;-71
2021/06/29 08:41:41;;;;;;;7.70;4.13;;;20.30;81.90;;;;;;5076035;28;20021;-71
2021/06/29 08:44:06;;;;;;;9.23;4.03;;;20.90;81.80;;;;;;5073847;28;20047;-72
2021/06/29 08:46:33;;;;;;;9.88;3.33;;;21.60;83.00;;;;;;5078789;28;20472;-73
2021/06/29 08:48:59;;;;;;;7.70;3.03;;;22.10;76.90;;;;;;5078906;28;20399;-72
2021/06/29 08:51:25;;;;;;;6.13;3.03;;;22.40;76.80;;;;;;5077876;28;20039;-71
2021/06/29 08:53:51;;;;;;;6.75;3.35;;;22.60;74.60;;;;;;5077694;28;20044;-71
2021/06/29 08:56:17;;;;;;;6.53;3.40;;;22.50;73.30;;;;;;5076939;28;20032;-71
2021/06/29 08:58:44;;;;;;;9.40;3.47;;;22.30;74.20;;;;;;5077426;28;20138;-72
2021/06/29 09:01:12;;;;;;;6.28;3.45;;;22.00;75.10;;;;;;5076094;28;20495;-72
2021/06/29 09:03:38;;;;;;;5.93;3.00;;;22.00;75.90;;;;;;5073355;28;20024;-72
2021/06/29 09:06:05;;;;;;;7.47;2.90;;;22.30;77.20;;;;;;5077380;28;20029;-72
2021/06/29 09:08:41;;;;;;;7.07;2.80;;;22.60;75.90;;;;;;5078174;28;20032;-72
2021/06/29 09:11:10;;;;;;;8.48;2.42;;;22.90;77.20;;;;;;5075233;28;20025;-73
2021/06/29 09:13:37;;;;;;;6.20;2.38;;;23.30;76.20;;;;;;5075915;28;20024;-72
2021/06/29 09:16:04;;;;;;;6.78;2.70;;;23.30;75.00;;;;;;5076581;28;20080;-73
2021/06/29 09:18:32;;;;;;;7.03;2.95;;;23.10;75.20;;;;;;5076293;28;20056;-72
2021/06/29 09:21:07;;;;;;;11.35;4.32;;;22.90;69.40;;;;;;5058557;28;20055;-73
2021/06/29 09:23:39;;;;;;;10.57;5.25;;;22.60;68.40;;;;;;5075154;28;20027;-73
2021/06/29 09:26:08;;;;;;;15.73;10.20;;;22.80;70.10;;;;;;5077026;28;20062;-73
2021/06/29 09:28:37;;;;;;;10.80;4.90;;;23.30;68.70;;;;;;5076946;28;20028;-74
2021/06/29 09:31:09;;;;;;;7.07;2.63;;;23.50;67.90;;;;;;5076215;28;20096;-73
2021/06/29 09:33:46;;;;;;;8.25;2.50;;;23.40;68.10;;;;;;5056802;28;20032;-74
2021/06/29 09:36:15;;;;;;;5.03;2.58;;;23.10;64.70;;;;;;5076197;28;20032;-73
2021/06/29 09:38:43;;;;;;;8.48;2.28;;;22.70;67.20;;;;;;5074998;28;20471;-73
2021/06/29 09:41:16;;;;;;;4.40;2.60;;;22.70;69.80;;;;;;5076084;28;20017;-74
2021/06/29 09:43:45;;;;;;;6.78;3.08;;;23.20;73.10;;;;;;5076485;28;20016;-74
2021/06/29 09:46:16;;;;;;;6.85;2.88;;;24.00;73.80;;;;;;5074145;28;20108;-75
2021/06/29 09:48:46;;;;;;;8.10;2.58;;;25.10;73.40;;;;;;5077921;28;20116;-75
2021/06/29 09:51:20;;;;;;;6.93;2.42;;;26.00;70.90;;;;;;5073729;28;20032;-75
2021/06/29 09:53:48;;;;;;;6.55;2.33;;;26.80;69.10;;;;;;5073810;28;20037;-75
2021/06/29 09:56:19;;;;;;;5.90;1.90;;;27.60;66.70;;;;;;5076124;28;20085;-76
2021/06/29 09:58:51;;;;;;;4.78;1.85;;;28.20;62.00;;;;;;5073869;28;20111;-76
2021/06/29 10:01:20;;;;;;;7.25;1.85;;;28.50;65.00;;;;;;5070693;28;20052;-75
2021/06/29 10:03:50;;;;;;;4.75;1.90;;;28.40;64.80;;;;;;5067324;28;20027;-74
2021/06/29 10:06:22;;;;;;;5.35;1.90;;;28.30;60.50;;;;;;5075183;28;20028;-72
2021/06/29 10:08:53;;;;;;;7.90;1.80;;;28.10;58.50;;;;;;5075626;28;20032;-74
2021/06/29 10:11:25;;;;;;;4.57;1.50;;;28.30;62.70;;;;;;5076261;28;20258;-73
2021/06/29 10:14:00;;;;;;;7.75;2.45;;;28.80;60.20;;;;;;5076101;28;20020;-75
2021/06/29 10:16:38;;;;;;;4.53;1.70;;;29.10;59.50;;;;;;5077841;28;20509;-73
2021/06/29 10:21:45;;;;;;;6.57;3.58;;;29.40;58.30;;;;;;5076391;28;20115;-76
2021/06/29 10:24:13;;;;;;;33.13;27.83;;;29.60;60.60;;;;;;5075282;28;20024;-78
2021/06/29 10:26:41;;;;;;;8.20;2.90;;;29.80;60.30;;;;;;5074441;28;20021;-72
2021/06/29 10:29:09;;;;;;;5.15;1.48;;;29.80;60.00;;;;;;5075333;28;20029;-71
2021/06/29 10:31:39;;;;;;;3.20;1.55;;;29.70;58.70;;;;;;5073738;28;20020;-70
2021/06/29 10:34:08;;;;;;;3.60;1.33;;;29.60;59.30;;;;;;5074525;28;20061;-69
2021/06/29 10:36:42;;;;;;;3.47;1.42;;;29.30;58.00;;;;;;5076104;28;20036;-73
2021/06/29 10:39:10;;;;;;;8.02;4.00;;;28.90;56.80;;;;;;5079169;28;20063;-75
2021/06/29 10:41:59;;;;;;;4.97;2.22;;;28.60;58.30;;;;;;5074825;28;20043;-78
2021/06/29 10:44:26;;;;;;;5.78;2.45;;;28.50;57.40;;;;;;5083720;28;20033;-80
2021/06/29 10:46:57;;;;;;;6.55;3.13;;;28.30;55.50;;;;;;5073904;28;20495;-75
2021/06/29 10:49:38;;;;;;;6.25;2.38;;;27.80;52.90;;;;;;5072150;28;20055;-70
2021/06/29 10:52:31;;;;;;;8.07;2.97;;;27.30;56.20;;;;;;5073272;28;20104;-75
2021/06/29 10:55:06;;;;;;;4.57;2.00;;;27.30;56.30;;;;;;5071141;28;20052;-74
2021/06/29 10:57:39;;;;;;;6.53;2.25;;;27.80;58.80;;;;;;5077104;28;20020;-74
2021/06/29 11:00:28;;;;;;;6.65;2.88;;;28.30;59.00;;;;;;5074486;28;20036;-73
2021/06/29 11:02:57;;;;;;;5.68;1.63;;;28.50;52.80;;;;;;5074341;28;20020;-74
2021/06/29 11:05:25;;;;;;;4.05;1.40;;;28.30;55.10;;;;;;5074569;28;20174;-72
2021/06/29 11:07:51;;;;;;;7.55;1.50;;;27.90;54.10;;;;;;5073674;28;20389;-72
2021/06/29 11:10:31;;;;;;;4.40;1.80;;;27.60;54.60;;;;;;5075122;28;20033;-72
2021/06/29 11:13:00;;;;;;;4.82;1.70;;;27.70;55.70;;;;;;5069718;28;20668;-71
2021/06/29 11:15:49;;;;;;;3.40;1.33;;;28.20;55.90;;;;;;5074426;28;20024;-71
2021/06/29 11:18:38;;;;;;;4.47;1.30;;;29.00;59.10;;;;;;5071289;28;20040;-71
2021/06/29 11:21:06;;;;;;;4.80;1.52;;;29.60;56.90;;;;;;5072230;28;20032;-72
2021/06/29 11:23:36;;;;;;;5.07;1.35;;;29.90;50.00;;;;;;5075698;28;20048;-71
2021/06/29 11:26:11;;;;;;;5.95;1.58;;;29.60;54.30;;;;;;5075548;28;20028;-71
2021/06/29 11:28:39;;;;;;;6.80;1.83;;;29.20;54.80;;;;;;5073039;28;20029;-70
2021/06/29 11:31:07;;;;;;;4.38;1.52;;;28.70;53.20;;;;;;5075278;28;20031;-71
2021/06/29 11:33:59;;;;;;;3.67;1.35;;;28.30;53.90;;;;;;5074268;28;20407;-71
2021/06/29 11:39:17;;;;;;;2.50;1.40;;;27.40;56.00;;;;;;5078720;28;20515;-71
2021/06/29 11:41:54;;;;;;;4.25;1.40;;;27.00;56.00;;;;;;5079173;28;20032;-71
2021/06/29 11:44:20;;;;;;;5.10;1.50;;;26.80;56.20;;;;;;5078750;28;20064;-71
2021/06/29 11:47:05;;;;;;;5.28;1.40;;;26.60;54.90;;;;;;5079170;28;20031;-71
2021/06/29 11:49:43;;;;;;;5.00;1.50;;;26.30;54.20;;;;;;5078657;28;20024;-71
2021/06/29 11:52:16;;;;;;;3.92;1.77;;;25.90;55.80;;;;;;5077950;28;20094;-71
2021/06/29 11:55:16;;;;;;;5.00;1.50;;;25.80;57.70;;;;;;5080084;28;20395;-71
2021/06/29 11:57:53;;;;;;;3.47;1.48;;;25.80;52.90;;;;;;5065436;28;20017;-71
2021/06/29 12:00:21;;;;;;;4.85;1.40;;;25.90;59.00;;;;;;5073634;28;20107;-71
2021/06/29 12:02:50;;;;;;;2.90;1.30;;;26.20;58.70;;;;;;5079820;28;20047;-71
2021/06/29 12:05:20;;;;;;;4.07;1.50;;;26.40;60.50;;;;;;5077904;28;20036;-71
2021/06/29 12:08:00;;;;;;;3.22;1.02;;;26.50;55.00;;;;;;5079920;28;20032;-71
2021/06/29 12:10:40;;;;;;;5.00;1.25;;;26.50;53.70;;;;;;5079752;28;20020;-71
2021/06/29 12:13:15;;;;;;;4.90;1.40;;;26.20;54.00;;;;;;5080061;28;20028;-71
2021/06/29 12:15:41;;;;;;;3.50;0.90;;;25.90;53.00;;;;;;5079770;28;20032;-71
2021/06/29 12:18:10;;;;;;;3.05;1.10;;;25.70;56.20;;;;;;5079240;28;20053;-71
2021/06/29 12:20:43;;;;;;;5.03;1.25;;;25.60;59.00;;;;;;5078766;28;20388;-70
2021/06/29 12:23:12;;;;;;;5.07;1.20;;;25.50;57.70;;;;;;5079755;28;20027;-70
2021/06/29 12:25:41;;;;;;;3.08;1.00;;;25.40;58.50;;;;;;5078262;28;20074;-70
2021/06/29 12:28:14;;;;;;;4.15;1.13;;;25.40;58.40;;;;;;5078146;28;20031;-70
2021/06/29 12:30:52;;;;;;;5.20;1.27;;;25.30;56.80;;;;;;5079606;28;20103;-70
2021/06/29 12:33:19;;;;;;;4.22;1.10;;;25.20;56.60;;;;;;5079547;28;20364;-70
2021/06/29 12:35:48;;;;;;;2.97;1.10;;;25.00;57.50;;;;;;5076929;28;20100;-70
2021/06/29 12:38:17;;;;;;;3.38;1.02;;;25.00;59.50;;;;;;5077215;28;20024;-70
2021/06/29 12:40:56;;;;;;;2.08;1.00;;;24.90;58.00;;;;;;5076249;28;20021;-70
2021/06/29 12:43:24;;;;;;;1.90;0.80;;;24.80;57.40;;;;;;5078492;28;20510;-70
2021/06/29 12:45:51;;;;;;;3.65;1.00;;;24.70;58.30;;;;;;5075667;28;20047;-70
2021/06/29 12:48:18;;;;;;;2.45;0.90;;;24.70;56.70;;;;;;5076689;28;20521;-70
2021/06/29 12:50:55;;;;;;;3.90;1.10;;;24.60;53.90;;;;;;5077481;28;20017;-70